IGO1128 VRMM-VOBL
Flight info
| Callsign | IGO1128 |
|---|---|
| Flight time | 1h 32m |
| Altitude | 35000 |
| Route | PATLO1A PATLO R457 TVM W43 UGABA UGABA7E |
| Aircraft | A320/M-SDE3FGHIRWY/LB1 |
Departure
| Time | 2026-05-07 10:31 |
|---|---|
| Airport | Velana International Airport (VRMM) |
Arrival
| Time | 2026-05-07 12:04 |
|---|---|
| Airport | Kempegowda International Airport Bengaluru (VOBL) |
| Time | Latitude | Longitude | Altitude | Speed | Heading |
|---|---|---|---|---|---|
| 2026-05-07 10:08 | 4.18609 | 73.52748 | 16 ft | 0 kts | 270° |
| 2026-05-07 10:21 | 4.18609 | 73.52761 | 16 ft | 2 kts | 270° |
| 2026-05-07 10:21 | 4.18609 | 73.52779 | 16 ft | 2 kts | 270° |
| 2026-05-07 10:21 | 4.18609 | 73.52796 | 16 ft | 2 kts | 240° |
| 2026-05-07 10:22 | 4.18622 | 73.52807 | 20 ft | 2 kts | 167° |
| 2026-05-07 10:22 | 4.18632 | 73.52804 | 18 ft | 0 kts | 166° |
| 2026-05-07 10:26 | 4.18631 | 73.52805 | 17 ft | 1 kts | 166° |
| 2026-05-07 10:26 | 4.18621 | 73.52812 | 18 ft | 3 kts | 134° |
| 2026-05-07 10:27 | 4.18613 | 73.52837 | 17 ft | 5 kts | 103° |
| 2026-05-07 10:27 | 4.18609 | 73.52877 | 17 ft | 7 kts | 93° |
| 2026-05-07 10:27 | 4.18587 | 73.52918 | 17 ft | 8 kts | 147° |
| 2026-05-07 10:27 | 4.18548 | 73.52956 | 16 ft | 9 kts | 103° |
| 2026-05-07 10:28 | 4.18546 | 73.52975 | 16 ft | 0 kts | 90° |
| 2026-05-07 10:29 | 4.18546 | 73.52976 | 16 ft | 1 kts | 90° |
| 2026-05-07 10:29 | 4.18546 | 73.52989 | 16 ft | 3 kts | 90° |
| 2026-05-07 10:30 | 4.18547 | 73.53059 | 16 ft | 7 kts | 90° |
| 2026-05-07 10:30 | 4.18574 | 73.53101 | 16 ft | 8 kts | 20° |
| 2026-05-07 10:30 | 4.18645 | 73.53104 | 17 ft | 18 kts | 1° |
| 2026-05-07 10:30 | 4.18983 | 73.53102 | 19 ft | 81 kts | 360° |
| 2026-05-07 10:31 | 4.19740 | 73.53102 | 13 ft | 134 kts | 360° |
| 2026-05-07 10:31 | 4.20802 | 73.53095 | 121 ft | 165 kts | 358° |
| 2026-05-07 10:31 | 4.21965 | 73.53098 | 711 ft | 170 kts | 356° |
| 2026-05-07 10:31 | 4.23125 | 73.53096 | 1312 ft | 171 kts | 355° |
| 2026-05-07 10:32 | 4.24376 | 73.53090 | 1603 ft | 190 kts | 355° |
| 2026-05-07 10:32 | 4.25779 | 73.53083 | 1808 ft | 213 kts | 356° |
| 2026-05-07 10:32 | 4.27353 | 73.53076 | 2117 ft | 239 kts | 356° |
| 2026-05-07 10:32 | 4.29089 | 73.53072 | 2698 ft | 258 kts | 356° |
| 2026-05-07 10:33 | 4.30911 | 73.53068 | 3724 ft | 265 kts | 357° |
| 2026-05-07 10:33 | 4.32140 | 73.53068 | 4493 ft | 268 kts | 358° |
| 2026-05-07 10:33 | 4.34658 | 73.53074 | 6009 ft | 273 kts | 357° |
| 2026-05-07 10:33 | 4.36574 | 73.53078 | 6877 ft | 277 kts | 357° |
| 2026-05-07 10:34 | 4.38492 | 73.53082 | 7769 ft | 282 kts | 357° |
| 2026-05-07 10:34 | 4.40470 | 73.53137 | 8611 ft | 288 kts | 5° |
| 2026-05-07 10:34 | 4.42418 | 73.53661 | 9328 ft | 294 kts | 21° |
| 2026-05-07 10:34 | 4.43614 | 73.54321 | 9779 ft | 299 kts | 34° |
| 2026-05-07 10:35 | 4.45233 | 73.55660 | 10329 ft | 308 kts | 39° |
| 2026-05-07 10:35 | 4.46921 | 73.57112 | 10470 ft | 331 kts | 39° |
| 2026-05-07 10:35 | 4.48719 | 73.58647 | 10743 ft | 346 kts | 39° |
| 2026-05-07 10:35 | 4.51168 | 73.60736 | 11458 ft | 352 kts | 38° |
| 2026-05-07 10:36 | 4.53042 | 73.62335 | 12046 ft | 355 kts | 38° |
| 2026-05-07 10:36 | 4.54931 | 73.63948 | 12623 ft | 359 kts | 38° |
| 2026-05-07 10:36 | 4.56838 | 73.65578 | 13202 ft | 362 kts | 38° |
| 2026-05-07 10:36 | 4.58109 | 73.66665 | 13586 ft | 364 kts | 39° |
| 2026-05-07 10:37 | 4.60039 | 73.68318 | 14082 ft | 366 kts | 38° |
| 2026-05-07 10:37 | 4.61987 | 73.69984 | 14585 ft | 369 kts | 39° |
| 2026-05-07 10:37 | 4.63945 | 73.71658 | 15094 ft | 371 kts | 38° |
| 2026-05-07 10:37 | 4.65915 | 73.73344 | 15619 ft | 373 kts | 38° |
| 2026-05-07 10:38 | 4.68541 | 73.75592 | 16279 ft | 377 kts | 38° |
| 2026-05-07 10:38 | 4.69891 | 73.76747 | 16626 ft | 378 kts | 39° |
| 2026-05-07 10:38 | 4.71873 | 73.78442 | 17110 ft | 381 kts | 39° |
| 2026-05-07 10:38 | 4.73890 | 73.80168 | 17608 ft | 383 kts | 38° |
| 2026-05-07 10:39 | 4.75924 | 73.81908 | 18084 ft | 385 kts | 39° |
| 2026-05-07 10:39 | 4.77968 | 73.83656 | 18542 ft | 386 kts | 39° |
| 2026-05-07 10:39 | 4.80016 | 73.85405 | 18974 ft | 389 kts | 39° |
| 2026-05-07 10:39 | 4.82084 | 73.87172 | 19366 ft | 392 kts | 39° |
| 2026-05-07 10:40 | 4.84840 | 73.89531 | 19893 ft | 395 kts | 39° |
| 2026-05-07 10:40 | 4.86256 | 73.90744 | 20144 ft | 398 kts | 40° |
| 2026-05-07 10:40 | 4.88339 | 73.92529 | 20542 ft | 400 kts | 39° |
| 2026-05-07 10:40 | 4.90465 | 73.94348 | 20925 ft | 404 kts | 39° |
| 2026-05-07 10:41 | 4.92611 | 73.96181 | 21297 ft | 406 kts | 39° |
| 2026-05-07 10:41 | 4.94772 | 73.98025 | 21673 ft | 410 kts | 40° |
| 2026-05-07 10:41 | 4.96948 | 73.99883 | 22039 ft | 413 kts | 39° |
| 2026-05-07 10:41 | 4.99142 | 74.01761 | 22414 ft | 415 kts | 40° |
| 2026-05-07 10:42 | 5.01343 | 74.03649 | 22774 ft | 418 kts | 40° |
| 2026-05-07 10:42 | 5.03561 | 74.05549 | 23121 ft | 421 kts | 40° |
| 2026-05-07 10:42 | 5.05792 | 74.07462 | 23456 ft | 424 kts | 40° |
| 2026-05-07 10:42 | 5.08009 | 74.09367 | 23752 ft | 426 kts | 40° |
| 2026-05-07 10:43 | 5.10261 | 74.11301 | 24071 ft | 427 kts | 40° |
| 2026-05-07 10:43 | 5.12522 | 74.13238 | 24406 ft | 428 kts | 40° |
| 2026-05-07 10:43 | 5.14791 | 74.15183 | 24704 ft | 431 kts | 40° |
| 2026-05-07 10:43 | 5.17072 | 74.17136 | 25000 ft | 433 kts | 41° |
| 2026-05-07 10:44 | 5.19368 | 74.19102 | 25316 ft | 434 kts | 40° |
| 2026-05-07 10:44 | 5.21667 | 74.21066 | 25645 ft | 435 kts | 40° |
| 2026-05-07 10:44 | 5.23971 | 74.23046 | 25958 ft | 436 kts | 43° |
| 2026-05-07 10:44 | 5.26042 | 74.25275 | 26269 ft | 437 kts | 53° |
| 2026-05-07 10:45 | 5.28365 | 74.28579 | 26664 ft | 438 kts | 56° |
| 2026-05-07 10:45 | 5.29519 | 74.30243 | 26869 ft | 439 kts | 56° |
| 2026-05-07 10:45 | 5.31268 | 74.32758 | 27161 ft | 441 kts | 56° |
| 2026-05-07 10:45 | 5.33028 | 74.35284 | 27486 ft | 441 kts | 56° |
| 2026-05-07 10:46 | 5.34787 | 74.37812 | 27774 ft | 443 kts | 56° |
| 2026-05-07 10:46 | 5.36548 | 74.40345 | 28092 ft | 443 kts | 56° |
| 2026-05-07 10:46 | 5.38537 | 74.42713 | 28397 ft | 446 kts | 42° |
| 2026-05-07 10:46 | 5.41058 | 74.44525 | 28712 ft | 448 kts | 33° |
| 2026-05-07 10:47 | 5.43722 | 74.46162 | 28999 ft | 450 kts | 32° |
| 2026-05-07 10:47 | 5.46404 | 74.47801 | 29307 ft | 452 kts | 32° |
| 2026-05-07 10:47 | 5.49061 | 74.49416 | 29582 ft | 454 kts | 32° |
| 2026-05-07 10:47 | 5.51767 | 74.51059 | 29852 ft | 456 kts | 32° |
| 2026-05-07 10:48 | 5.54487 | 74.52716 | 30051 ft | 459 kts | 32° |
| 2026-05-07 10:48 | 5.57213 | 74.54385 | 30300 ft | 460 kts | 32° |
| 2026-05-07 10:48 | 5.59940 | 74.56053 | 30636 ft | 459 kts | 33° |
| 2026-05-07 10:48 | 5.62665 | 74.57720 | 30991 ft | 458 kts | 32° |
| 2026-05-07 10:49 | 5.65387 | 74.59384 | 31320 ft | 457 kts | 32° |
| 2026-05-07 10:49 | 5.68098 | 74.61040 | 31671 ft | 456 kts | 32° |
| 2026-05-07 10:49 | 5.70811 | 74.62699 | 32026 ft | 456 kts | 32° |
| 2026-05-07 10:49 | 5.73517 | 74.64356 | 32387 ft | 455 kts | 31° |
| 2026-05-07 10:50 | 5.76216 | 74.66009 | 32739 ft | 455 kts | 31° |
| 2026-05-07 10:50 | 5.78880 | 74.67636 | 33104 ft | 454 kts | 31° |
| 2026-05-07 10:50 | 5.81577 | 74.69280 | 33474 ft | 453 kts | 31° |
| 2026-05-07 10:50 | 5.84274 | 74.70923 | 33835 ft | 452 kts | 31° |
| 2026-05-07 10:51 | 5.86961 | 74.72561 | 34152 ft | 451 kts | 31° |
| 2026-05-07 10:51 | 5.89637 | 74.74198 | 34441 ft | 451 kts | 32° |
| 2026-05-07 10:51 | 5.92317 | 74.75842 | 34693 ft | 452 kts | 32° |
| 2026-05-07 10:51 | 5.95004 | 74.77488 | 34778 ft | 452 kts | 31° |
| 2026-05-07 10:52 | 6.00375 | 74.80773 | 34794 ft | 452 kts | 32° |
| 2026-05-07 10:52 | 6.05739 | 74.84059 | 34794 ft | 452 kts | 32° |
| 2026-05-07 10:53 | 6.11076 | 74.87327 | 34794 ft | 452 kts | 32° |
| 2026-05-07 10:53 | 6.16438 | 74.90618 | 34795 ft | 452 kts | 32° |
| 2026-05-07 10:54 | 6.21815 | 74.93904 | 34797 ft | 452 kts | 32° |
| 2026-05-07 10:54 | 6.27194 | 74.97189 | 34799 ft | 452 kts | 32° |
| 2026-05-07 10:55 | 6.32560 | 75.00474 | 34804 ft | 451 kts | 32° |
| 2026-05-07 10:55 | 6.37880 | 75.03738 | 34807 ft | 451 kts | 32° |
| 2026-05-07 10:56 | 6.43229 | 75.07022 | 34809 ft | 450 kts | 32° |
| 2026-05-07 10:56 | 6.48568 | 75.10301 | 34815 ft | 449 kts | 32° |
| 2026-05-07 10:57 | 6.53886 | 75.13564 | 34817 ft | 447 kts | 32° |
| 2026-05-07 10:57 | 6.59198 | 75.16819 | 34812 ft | 447 kts | 32° |
| 2026-05-07 10:58 | 6.64502 | 75.20072 | 34813 ft | 447 kts | 31° |
| 2026-05-07 10:58 | 6.69768 | 75.23313 | 34806 ft | 447 kts | 32° |
| 2026-05-07 10:59 | 6.75066 | 75.26573 | 34806 ft | 447 kts | 32° |
| 2026-05-07 10:59 | 6.80373 | 75.29831 | 34803 ft | 447 kts | 32° |
| 2026-05-07 11:00 | 6.85680 | 75.33087 | 34806 ft | 447 kts | 32° |
| 2026-05-07 11:00 | 6.90953 | 75.36325 | 34808 ft | 447 kts | 32° |
| 2026-05-07 11:01 | 6.96267 | 75.39590 | 34809 ft | 447 kts | 32° |
| 2026-05-07 11:01 | 7.01572 | 75.42859 | 34808 ft | 447 kts | 32° |
| 2026-05-07 11:02 | 7.06880 | 75.46120 | 34804 ft | 447 kts | 31° |
| 2026-05-07 11:02 | 7.12190 | 75.49373 | 34803 ft | 447 kts | 32° |
| 2026-05-07 11:03 | 7.17464 | 75.52622 | 34802 ft | 447 kts | 32° |
| 2026-05-07 11:03 | 7.22770 | 75.55899 | 34801 ft | 447 kts | 32° |
| 2026-05-07 11:04 | 7.28078 | 75.59172 | 34805 ft | 448 kts | 32° |
| 2026-05-07 11:04 | 7.33398 | 75.62437 | 34807 ft | 448 kts | 32° |
| 2026-05-07 11:05 | 7.38718 | 75.65713 | 34794 ft | 448 kts | 32° |
| 2026-05-07 11:05 | 7.44000 | 75.68971 | 34797 ft | 448 kts | 32° |
| 2026-05-07 11:06 | 7.49315 | 75.72252 | 34798 ft | 448 kts | 32° |
| 2026-05-07 11:06 | 7.54635 | 75.75538 | 34803 ft | 448 kts | 32° |
| 2026-05-07 11:07 | 7.59959 | 75.78821 | 34798 ft | 449 kts | 32° |
| 2026-05-07 11:07 | 7.65291 | 75.82110 | 34785 ft | 450 kts | 32° |
| 2026-05-07 11:08 | 7.70603 | 75.85383 | 34778 ft | 451 kts | 33° |
| 2026-05-07 11:08 | 7.75962 | 75.88691 | 34778 ft | 452 kts | 32° |
| 2026-05-07 11:09 | 7.81331 | 75.92001 | 34783 ft | 453 kts | 32° |
| 2026-05-07 11:09 | 7.86708 | 75.95321 | 34790 ft | 453 kts | 33° |
| 2026-05-07 11:10 | 7.92079 | 75.98646 | 34793 ft | 453 kts | 33° |
| 2026-05-07 11:10 | 7.97418 | 76.01947 | 34796 ft | 453 kts | 33° |
| 2026-05-07 11:11 | 8.02793 | 76.05271 | 34796 ft | 453 kts | 33° |
| 2026-05-07 11:11 | 8.08173 | 76.08597 | 34793 ft | 453 kts | 33° |
| 2026-05-07 11:12 | 8.13548 | 76.11922 | 34794 ft | 453 kts | 32° |
| 2026-05-07 11:12 | 8.18921 | 76.15244 | 34799 ft | 453 kts | 32° |
| 2026-05-07 11:13 | 8.24297 | 76.18566 | 34794 ft | 453 kts | 32° |
| 2026-05-07 11:13 | 8.29633 | 76.21867 | 34789 ft | 453 kts | 32° |
| 2026-05-07 11:14 | 8.35001 | 76.25197 | 34793 ft | 453 kts | 32° |
| 2026-05-07 11:14 | 8.40374 | 76.28528 | 34798 ft | 453 kts | 32° |
| 2026-05-07 11:15 | 8.45739 | 76.31866 | 34795 ft | 453 kts | 32° |
| 2026-05-07 11:15 | 8.51072 | 76.35174 | 34788 ft | 453 kts | 32° |
| 2026-05-07 11:16 | 8.56441 | 76.38500 | 34796 ft | 453 kts | 32° |
| 2026-05-07 11:16 | 8.61809 | 76.41826 | 34795 ft | 453 kts | 32° |
| 2026-05-07 11:17 | 8.67176 | 76.45154 | 34797 ft | 452 kts | 32° |
| 2026-05-07 11:17 | 8.72503 | 76.48464 | 34788 ft | 452 kts | 33° |
| 2026-05-07 11:18 | 8.77861 | 76.51801 | 34794 ft | 452 kts | 32° |
| 2026-05-07 11:18 | 8.83219 | 76.55131 | 34793 ft | 452 kts | 32° |
| 2026-05-07 11:19 | 8.88577 | 76.58460 | 34781 ft | 452 kts | 32° |
| 2026-05-07 11:19 | 8.93914 | 76.61762 | 34780 ft | 453 kts | 33° |
| 2026-05-07 11:20 | 8.99286 | 76.65103 | 34786 ft | 453 kts | 33° |
| 2026-05-07 11:20 | 9.04658 | 76.68444 | 34785 ft | 454 kts | 33° |
| 2026-05-07 11:21 | 9.10041 | 76.71792 | 34783 ft | 454 kts | 32° |
| 2026-05-07 11:21 | 9.15412 | 76.75141 | 34783 ft | 454 kts | 33° |
| 2026-05-07 11:22 | 9.20748 | 76.78472 | 34788 ft | 454 kts | 33° |
| 2026-05-07 11:22 | 9.26125 | 76.81824 | 34793 ft | 455 kts | 32° |
| 2026-05-07 11:23 | 9.31524 | 76.85188 | 34790 ft | 456 kts | 32° |
| 2026-05-07 11:23 | 9.36899 | 76.88542 | 34781 ft | 457 kts | 32° |
| 2026-05-07 11:24 | 9.42314 | 76.91919 | 34782 ft | 458 kts | 32° |
| 2026-05-07 11:24 | 9.47748 | 76.95285 | 34817 ft | 458 kts | 29° |
| 2026-05-07 11:25 | 9.53724 | 76.97458 | 34823 ft | 459 kts | 10° |
| 2026-05-07 11:25 | 9.60090 | 76.97911 | 34828 ft | 459 kts | 3° |
| 2026-05-07 11:26 | 9.66441 | 76.98211 | 34817 ft | 460 kts | 3° |
| 2026-05-07 11:26 | 9.72850 | 76.98522 | 34815 ft | 461 kts | 3° |
| 2026-05-07 11:27 | 9.79268 | 76.98830 | 34832 ft | 462 kts | 3° |
| 2026-05-07 11:27 | 9.85690 | 76.99140 | 34828 ft | 462 kts | 3° |
| 2026-05-07 11:28 | 9.92108 | 76.99443 | 34832 ft | 462 kts | 3° |
| 2026-05-07 11:28 | 9.98532 | 76.99747 | 34840 ft | 463 kts | 4° |
| 2026-05-07 11:29 | 10.04927 | 77.00062 | 34852 ft | 463 kts | 3° |
| 2026-05-07 11:29 | 10.11372 | 77.00378 | 34847 ft | 464 kts | 3° |
| 2026-05-07 11:30 | 10.17818 | 77.00689 | 34851 ft | 464 kts | 3° |
| 2026-05-07 11:30 | 10.24270 | 77.00999 | 34858 ft | 464 kts | 3° |
| 2026-05-07 11:31 | 10.30673 | 77.01311 | 34857 ft | 464 kts | 3° |
| 2026-05-07 11:31 | 10.37122 | 77.01629 | 34851 ft | 464 kts | 3° |
| 2026-05-07 11:32 | 10.46782 | 77.02101 | 34843 ft | 463 kts | 3° |
| 2026-05-07 11:33 | 10.53224 | 77.02408 | 34846 ft | 463 kts | 3° |
| 2026-05-07 11:33 | 10.59612 | 77.02724 | 34846 ft | 463 kts | 3° |
| 2026-05-07 11:34 | 10.66041 | 77.03042 | 34832 ft | 463 kts | 3° |
| 2026-05-07 11:34 | 10.72469 | 77.03356 | 34842 ft | 462 kts | 2° |
| 2026-05-07 11:35 | 10.78885 | 77.03673 | 34843 ft | 462 kts | 2° |
| 2026-05-07 11:35 | 10.85300 | 77.03982 | 34855 ft | 461 kts | 2° |
| 2026-05-07 11:36 | 10.91672 | 77.04286 | 34855 ft | 461 kts | 2° |
| 2026-05-07 11:36 | 10.98082 | 77.04601 | 34856 ft | 461 kts | 2° |
| 2026-05-07 11:37 | 11.04477 | 77.05105 | 34857 ft | 461 kts | 11° |
| 2026-05-07 11:37 | 11.10743 | 77.06472 | 34846 ft | 461 kts | 12° |
| 2026-05-07 11:38 | 11.16968 | 77.07819 | 34854 ft | 460 kts | 12° |
| 2026-05-07 11:38 | 11.23237 | 77.09170 | 34841 ft | 460 kts | 12° |
| 2026-05-07 11:39 | 11.29504 | 77.10524 | 34841 ft | 461 kts | 12° |
| 2026-05-07 11:39 | 11.35776 | 77.11881 | 34854 ft | 460 kts | 12° |
| 2026-05-07 11:40 | 11.41998 | 77.13226 | 34853 ft | 460 kts | 12° |
| 2026-05-07 11:40 | 11.48269 | 77.14585 | 34871 ft | 461 kts | 12° |
| 2026-05-07 11:41 | 11.54535 | 77.15949 | 34872 ft | 461 kts | 12° |
| 2026-05-07 11:41 | 11.60803 | 77.17316 | 34887 ft | 460 kts | 12° |
| 2026-05-07 11:42 | 11.67065 | 77.18677 | 34885 ft | 460 kts | 12° |
| 2026-05-07 11:42 | 11.73287 | 77.20034 | 34888 ft | 460 kts | 12° |
| 2026-05-07 11:43 | 11.79558 | 77.21401 | 34886 ft | 461 kts | 12° |
| 2026-05-07 11:43 | 11.82699 | 77.22087 | 34779 ft | 462 kts | 12° |
| 2026-05-07 11:43 | 11.85835 | 77.22774 | 34454 ft | 460 kts | 12° |
| 2026-05-07 11:43 | 11.88958 | 77.23456 | 33926 ft | 459 kts | 11° |
| 2026-05-07 11:44 | 11.92073 | 77.24134 | 33369 ft | 457 kts | 12° |
| 2026-05-07 11:44 | 11.95170 | 77.24807 | 32862 ft | 454 kts | 12° |
| 2026-05-07 11:44 | 11.98213 | 77.25469 | 32341 ft | 452 kts | 12° |
| 2026-05-07 11:44 | 12.01278 | 77.26136 | 31819 ft | 449 kts | 12° |
| 2026-05-07 11:45 | 12.04328 | 77.26801 | 31299 ft | 447 kts | 13° |
| 2026-05-07 11:45 | 12.07361 | 77.27464 | 30783 ft | 445 kts | 13° |
| 2026-05-07 11:45 | 12.10379 | 77.28127 | 30270 ft | 443 kts | 14° |
| 2026-05-07 11:45 | 12.13389 | 77.28788 | 29734 ft | 441 kts | 14° |
| 2026-05-07 11:46 | 12.16302 | 77.29683 | 29215 ft | 435 kts | 23° |
| 2026-05-07 11:46 | 12.19087 | 77.30839 | 28739 ft | 430 kts | 23° |
| 2026-05-07 11:46 | 12.21810 | 77.31969 | 28282 ft | 425 kts | 24° |
| 2026-05-07 11:46 | 12.24539 | 77.33103 | 27818 ft | 422 kts | 23° |
| 2026-05-07 11:47 | 12.27243 | 77.34227 | 27375 ft | 418 kts | 23° |
| 2026-05-07 11:47 | 12.29922 | 77.35340 | 26943 ft | 414 kts | 24° |
| 2026-05-07 11:47 | 12.32579 | 77.36447 | 26517 ft | 411 kts | 22° |
| 2026-05-07 11:47 | 12.35217 | 77.37550 | 26113 ft | 407 kts | 23° |
| 2026-05-07 11:48 | 12.37832 | 77.38641 | 25694 ft | 405 kts | 23° |
| 2026-05-07 11:48 | 12.40434 | 77.39724 | 25265 ft | 403 kts | 23° |
| 2026-05-07 11:48 | 12.43024 | 77.40801 | 24839 ft | 401 kts | 23° |
| 2026-05-07 11:48 | 12.45607 | 77.41874 | 24409 ft | 399 kts | 22° |
| 2026-05-07 11:49 | 12.48142 | 77.42927 | 23984 ft | 398 kts | 22° |
| 2026-05-07 11:49 | 12.50700 | 77.43991 | 23531 ft | 397 kts | 22° |
| 2026-05-07 11:49 | 12.53251 | 77.45052 | 23020 ft | 395 kts | 22° |
| 2026-05-07 11:49 | 12.55784 | 77.46107 | 22562 ft | 392 kts | 22° |
| 2026-05-07 11:50 | 12.58301 | 77.47156 | 22102 ft | 389 kts | 22° |
| 2026-05-07 11:50 | 12.60793 | 77.48196 | 21645 ft | 386 kts | 21° |
| 2026-05-07 11:50 | 12.63268 | 77.49230 | 21190 ft | 383 kts | 21° |
| 2026-05-07 11:50 | 12.65725 | 77.50254 | 20734 ft | 380 kts | 21° |
| 2026-05-07 11:51 | 12.68136 | 77.51261 | 20280 ft | 378 kts | 20° |
| 2026-05-07 11:51 | 12.70564 | 77.52275 | 19832 ft | 376 kts | 20° |
| 2026-05-07 11:51 | 12.72983 | 77.53282 | 19373 ft | 375 kts | 20° |
| 2026-05-07 11:51 | 12.75400 | 77.54287 | 18914 ft | 374 kts | 20° |
| 2026-05-07 11:52 | 12.77806 | 77.55289 | 18460 ft | 373 kts | 20° |
| 2026-05-07 11:52 | 12.80207 | 77.56292 | 17967 ft | 372 kts | 20° |
| 2026-05-07 11:52 | 12.82582 | 77.57285 | 17735 ft | 363 kts | 20° |
| 2026-05-07 11:52 | 12.84878 | 77.58245 | 17616 ft | 351 kts | 20° |
| 2026-05-07 11:53 | 12.87073 | 77.59162 | 17476 ft | 341 kts | 20° |
| 2026-05-07 11:53 | 12.89262 | 77.59984 | 17320 ft | 330 kts | 11° |
| 2026-05-07 11:53 | 12.91512 | 77.60218 | 16939 ft | 326 kts | 356° |
| 2026-05-07 11:53 | 12.93792 | 77.60148 | 16404 ft | 329 kts | 355° |
| 2026-05-07 11:54 | 12.96052 | 77.60069 | 15913 ft | 321 kts | 356° |
| 2026-05-07 11:54 | 12.98263 | 77.59992 | 15436 ft | 315 kts | 356° |
| 2026-05-07 11:54 | 13.00428 | 77.59917 | 14962 ft | 308 kts | 357° |
| 2026-05-07 11:54 | 13.02556 | 77.59843 | 14506 ft | 303 kts | 357° |
| 2026-05-07 11:55 | 13.04616 | 77.59771 | 14062 ft | 298 kts | 358° |
| 2026-05-07 11:55 | 13.06671 | 77.59700 | 13601 ft | 293 kts | 358° |
| 2026-05-07 11:55 | 13.08652 | 77.59386 | 13140 ft | 286 kts | 335° |
| 2026-05-07 11:55 | 13.10165 | 77.58136 | 12696 ft | 281 kts | 303° |
| 2026-05-07 11:56 | 13.10768 | 77.56265 | 12241 ft | 278 kts | 275° |
| 2026-05-07 11:56 | 13.10846 | 77.54265 | 11793 ft | 284 kts | 271° |
| 2026-05-07 11:56 | 13.10824 | 77.52239 | 11328 ft | 283 kts | 270° |
| 2026-05-07 11:56 | 13.10777 | 77.50236 | 10872 ft | 279 kts | 269° |
| 2026-05-07 11:57 | 13.10739 | 77.48255 | 10425 ft | 276 kts | 271° |
| 2026-05-07 11:57 | 13.10718 | 77.46289 | 9981 ft | 274 kts | 271° |
| 2026-05-07 11:57 | 13.10746 | 77.44409 | 9830 ft | 258 kts | 280° |
| 2026-05-07 11:57 | 13.11410 | 77.42778 | 9730 ft | 245 kts | 314° |
| 2026-05-07 11:58 | 13.12768 | 77.41832 | 9524 ft | 235 kts | 346° |
| 2026-05-07 11:58 | 13.14383 | 77.41795 | 9105 ft | 236 kts | 16° |
| 2026-05-07 11:58 | 13.15965 | 77.42285 | 8735 ft | 239 kts | 18° |
| 2026-05-07 11:58 | 13.17565 | 77.42787 | 8352 ft | 241 kts | 19° |
| 2026-05-07 11:59 | 13.19138 | 77.43295 | 8024 ft | 232 kts | 24° |
| 2026-05-07 11:59 | 13.20383 | 77.44255 | 7705 ft | 222 kts | 57° |
| 2026-05-07 11:59 | 13.20887 | 77.45688 | 7310 ft | 222 kts | 85° |
| 2026-05-07 11:59 | 13.20908 | 77.47302 | 6882 ft | 229 kts | 90° |
| 2026-05-07 12:00 | 13.20878 | 77.48942 | 6565 ft | 230 kts | 90° |
| 2026-05-07 12:00 | 13.20860 | 77.50573 | 6284 ft | 228 kts | 90° |
| 2026-05-07 12:00 | 13.20847 | 77.52206 | 6001 ft | 229 kts | 90° |
| 2026-05-07 12:00 | 13.20834 | 77.53840 | 5709 ft | 228 kts | 90° |
| 2026-05-07 12:01 | 13.20822 | 77.55474 | 5420 ft | 229 kts | 90° |
| 2026-05-07 12:01 | 13.20809 | 77.57101 | 5138 ft | 229 kts | 90° |
| 2026-05-07 12:01 | 13.20796 | 77.58733 | 4851 ft | 228 kts | 90° |
| 2026-05-07 12:01 | 13.20783 | 77.60326 | 4575 ft | 219 kts | 90° |
| 2026-05-07 12:02 | 13.20771 | 77.61801 | 4319 ft | 200 kts | 90° |
| 2026-05-07 12:02 | 13.20761 | 77.63160 | 4085 ft | 177 kts | 90° |
| 2026-05-07 12:02 | 13.20751 | 77.64324 | 3875 ft | 154 kts | 90° |
| 2026-05-07 12:02 | 13.20742 | 77.65402 | 3678 ft | 147 kts | 90° |
| 2026-05-07 12:03 | 13.20741 | 77.66452 | 3465 ft | 145 kts | 90° |
| 2026-05-07 12:03 | 13.20741 | 77.67476 | 3310 ft | 144 kts | 92° |
| 2026-05-07 12:03 | 13.20725 | 77.68506 | 3055 ft | 143 kts | 94° |
| 2026-05-07 12:03 | 13.20714 | 77.69515 | 2972 ft | 136 kts | 91° |
| 2026-05-07 12:04 | 13.20702 | 77.70316 | 2969 ft | 90 kts | 91° |
| 2026-05-07 12:04 | 13.20698 | 77.70781 | 2969 ft | 40 kts | 90° |
| 2026-05-07 12:04 | 13.20643 | 77.70985 | 2956 ft | 23 kts | 118° |
| 2026-05-07 12:04 | 13.20584 | 77.71089 | 2967 ft | 12 kts | 123° |
| 2026-05-07 12:05 | 13.20552 | 77.71142 | 2967 ft | 5 kts | 121° |
| 2026-05-07 12:05 | 13.20543 | 77.71157 | 2967 ft | 0 kts | 118° |
| 2026-05-07 12:05 | 13.20541 | 77.71162 | 2967 ft | 2 kts | 118° |
| 2026-05-07 12:05 | 13.20530 | 77.71182 | 2966 ft | 5 kts | 116° |
| 2026-05-07 12:06 | 13.20522 | 77.71223 | 2966 ft | 7 kts | 94° |
| 2026-05-07 12:06 | 13.20500 | 77.71271 | 2954 ft | 9 kts | 154° |
| 2026-05-07 12:06 | 13.20432 | 77.71276 | 2968 ft | 9 kts | 180° |
| 2026-05-07 12:06 | 13.20366 | 77.71275 | 2968 ft | 10 kts | 181° |
| 2026-05-07 12:07 | 13.20285 | 77.71274 | 2968 ft | 11 kts | 180° |
| 2026-05-07 12:07 | 13.20239 | 77.71225 | 2968 ft | 12 kts | 267° |
| 2026-05-07 12:07 | 13.20241 | 77.71136 | 2968 ft | 13 kts | 271° |
| 2026-05-07 12:07 | 13.20242 | 77.71049 | 2968 ft | 13 kts | 271° |
| 2026-05-07 12:08 | 13.20226 | 77.70997 | 2968 ft | 6 kts | 193° |
| 2026-05-07 12:08 | 13.20182 | 77.70999 | 2968 ft | 4 kts | 180° |